createdAt,value
2022-12-23T00:00:39.400Z,98864.00
2022-12-23T00:03:06.530Z,98866.00
2022-12-23T00:05:39.204Z,98868.00
2022-12-23T00:08:07.685Z,98870.00
2022-12-23T00:10:40.379Z,98863.00
2022-12-23T00:13:27.737Z,98855.00
2022-12-23T00:16:15.030Z,98844.00
2022-12-23T00:18:46.031Z,98865.00
2022-12-23T00:21:17.082Z,98861.00
2022-12-23T00:23:49.219Z,98862.00
2022-12-23T00:26:24.148Z,98876.00
2022-12-23T00:28:52.307Z,98860.00
2022-12-23T00:31:21.158Z,98860.00
2022-12-23T00:33:51.534Z,98871.00
2022-12-23T00:36:24.649Z,98875.00
2022-12-23T00:39:10.622Z,98871.00
2022-12-23T00:41:56.625Z,98888.00
2022-12-23T00:44:24.141Z,98887.00
2022-12-23T00:46:51.331Z,98883.00
2022-12-23T00:49:38.926Z,98885.00
2022-12-23T00:52:10.570Z,98890.00
2022-12-23T00:54:37.805Z,98883.00
2022-12-23T00:57:05.565Z,98882.00
2022-12-23T00:59:33.922Z,98878.00
2022-12-23T01:02:19.953Z,98889.00
2022-12-23T01:05:05.936Z,98882.00
2022-12-23T01:07:32.955Z,98886.00
2022-12-23T01:09:59.884Z,98889.00
2022-12-23T01:12:26.928Z,98882.00
2022-12-23T01:14:53.874Z,98888.00
2022-12-23T01:17:20.969Z,98884.00
2022-12-23T01:19:47.960Z,98891.00
2022-12-23T01:22:14.915Z,98898.00
2022-12-23T01:24:41.854Z,98892.00
2022-12-23T01:27:08.823Z,98890.00
2022-12-23T01:29:35.736Z,98888.00
2022-12-23T01:32:02.754Z,98890.00
2022-12-23T01:34:36.165Z,98886.00
2022-12-23T01:37:03.994Z,98892.00
2022-12-23T01:39:30.967Z,98889.00
2022-12-23T01:42:16.209Z,98879.00
2022-12-23T01:45:14.677Z,98888.00
2022-12-23T01:48:00.308Z,98884.00
2022-12-23T01:50:44.014Z,98879.00
2022-12-23T01:53:38.892Z,98884.00
2022-12-23T01:56:14.877Z,98888.00
2022-12-23T01:58:59.148Z,98884.00
2022-12-23T02:01:45.804Z,98895.00
2022-12-23T02:04:18.893Z,98896.00
2022-12-23T02:07:06.875Z,98903.00
2022-12-23T02:09:40.174Z,98899.00
2022-12-23T02:12:57.328Z,98897.00
2022-12-23T02:16:06.943Z,98897.00
2022-12-23T02:18:44.737Z,98900.00
2022-12-23T02:21:33.109Z,98905.00
2022-12-23T02:24:03.150Z,98896.00
2022-12-23T02:27:13.708Z,98891.00
2022-12-23T02:29:55.591Z,98891.00
2022-12-23T02:32:58.273Z,98887.00
2022-12-23T02:35:55.433Z,98891.00
2022-12-23T02:38:27.845Z,98892.00
2022-12-23T02:41:12.528Z,98892.00
2022-12-23T02:43:51.634Z,98890.00
2022-12-23T02:46:34.374Z,98896.00
2022-12-23T02:49:25.238Z,98895.00
2022-12-23T02:51:56.789Z,98890.00
2022-12-23T02:54:37.265Z,98885.00
2022-12-23T02:57:07.691Z,98883.00
2022-12-23T02:59:45.780Z,98883.00
2022-12-23T03:02:13.228Z,98888.00
2022-12-23T03:04:42.185Z,98877.00
2022-12-23T03:07:42.365Z,98901.00
2022-12-23T03:10:24.889Z,98898.00
2022-12-23T03:13:12.922Z,98897.00
2022-12-23T03:16:23.321Z,98901.00
2022-12-23T03:19:20.444Z,98891.00
2022-12-23T03:22:43.918Z,98897.00
2022-12-23T03:25:38.543Z,98904.00
2022-12-23T03:28:27.780Z,98895.00
2022-12-23T03:31:02.386Z,98898.00
2022-12-23T03:33:41.492Z,98902.00
2022-12-23T03:36:24.785Z,98900.00
2022-12-23T03:38:55.028Z,98907.00
2022-12-23T03:41:54.102Z,98895.00
2022-12-23T03:44:32.665Z,98903.00
2022-12-23T03:47:16.834Z,98882.00
2022-12-23T03:49:55.334Z,98902.00
2022-12-23T03:52:31.274Z,98907.00
2022-12-23T03:55:05.961Z,98906.00
2022-12-23T03:57:44.259Z,98901.00
2022-12-23T04:00:12.208Z,98910.00
2022-12-23T04:03:02.641Z,98912.00
2022-12-23T04:05:40.595Z,98905.00
2022-12-23T04:08:18.970Z,98906.00
2022-12-23T04:10:46.963Z,98893.00
2022-12-23T04:13:13.887Z,98892.00
2022-12-23T04:15:42.405Z,98873.00
2022-12-23T04:18:11.375Z,98896.00
2022-12-23T04:20:38.581Z,98900.00
2022-12-23T04:23:05.756Z,98896.00
2022-12-23T04:25:32.692Z,98901.00
2022-12-23T04:27:59.632Z,98904.00
2022-12-23T04:30:31.639Z,98902.00
2022-12-23T04:33:00.866Z,98894.00
2022-12-23T04:35:27.951Z,98873.00
2022-12-23T04:37:54.997Z,98896.00
2022-12-23T04:40:22.027Z,98877.00
2022-12-23T04:42:48.936Z,98893.00
2022-12-23T04:45:16.096Z,98897.00
2022-12-23T04:47:43.052Z,98896.00
2022-12-23T04:50:15.025Z,98890.00
2022-12-23T04:52:43.537Z,98895.00
2022-12-23T04:55:11.670Z,98894.00
2022-12-23T04:57:38.655Z,98894.00
2022-12-23T05:00:06.812Z,98896.00
2022-12-23T05:02:33.797Z,98888.00
2022-12-23T05:05:00.870Z,98901.00
2022-12-23T05:07:27.823Z,98903.00
2022-12-23T05:09:54.750Z,98888.00
2022-12-23T05:12:21.663Z,98886.00
2022-12-23T05:14:48.611Z,98896.00
2022-12-23T05:17:15.511Z,98880.00
2022-12-23T05:19:42.448Z,98887.00
2022-12-23T05:22:09.341Z,98887.00
2022-12-23T05:24:36.260Z,98883.00
2022-12-23T05:27:03.214Z,98888.00
2022-12-23T05:29:30.197Z,98893.00
2022-12-23T05:31:57.271Z,98892.00
2022-12-23T05:34:24.209Z,98887.00
2022-12-23T05:36:51.309Z,98881.00
2022-12-23T05:39:18.309Z,98889.00
2022-12-23T05:41:45.862Z,98886.00
2022-12-23T05:44:12.890Z,98885.00
2022-12-23T05:46:39.887Z,98891.00
2022-12-23T05:49:06.924Z,98889.00
2022-12-23T05:51:33.831Z,98883.00
2022-12-23T05:54:00.774Z,98888.00
2022-12-23T05:56:27.752Z,98875.00
2022-12-23T05:58:54.754Z,98893.00
2022-12-23T06:01:21.673Z,98892.00
2022-12-23T06:03:48.651Z,98894.00
2022-12-23T06:06:15.763Z,98907.00
2022-12-23T06:08:42.806Z,98897.00
2022-12-23T06:11:09.726Z,98903.00
2022-12-23T06:13:36.653Z,98901.00
2022-12-23T06:16:03.928Z,98906.00
2022-12-23T06:29:53.618Z,98917.00
2022-12-23T06:32:20.715Z,98844.00
2022-12-23T06:34:49.669Z,98908.00
2022-12-23T06:37:16.546Z,98900.00
2022-12-23T06:39:43.462Z,98888.00
2022-12-23T06:42:10.402Z,98907.00
2022-12-23T06:44:37.368Z,98905.00
2022-12-23T06:47:04.351Z,98926.00
2022-12-23T06:49:31.294Z,98929.00
2022-12-23T06:51:58.304Z,98937.00
2022-12-23T06:54:25.235Z,98931.00
2022-12-23T06:56:52.172Z,98941.00
2022-12-23T06:59:19.129Z,98936.00
2022-12-23T07:01:46.125Z,98942.00
2022-12-23T07:04:13.194Z,98946.00
2022-12-23T07:06:40.133Z,98933.00
2022-12-23T07:09:07.391Z,98940.00
2022-12-23T07:11:34.891Z,98912.00
2022-12-23T07:14:01.848Z,98928.00
2022-12-23T07:16:28.957Z,98927.00
2022-12-23T07:18:55.918Z,98921.00
2022-12-23T07:21:28.973Z,98936.00
2022-12-23T07:23:56.558Z,98940.00
2022-12-23T07:26:23.501Z,98931.00
2022-12-23T07:28:50.432Z,98928.00
2022-12-23T07:31:17.546Z,98940.00
2022-12-23T07:33:44.632Z,98936.00
2022-12-23T07:36:11.645Z,98937.00
2022-12-23T07:38:41.078Z,98956.00
2022-12-23T07:41:08.068Z,98940.00
2022-12-23T07:43:35.084Z,98954.00
2022-12-23T07:46:09.682Z,98965.00
2022-12-23T07:48:36.808Z,98957.00
2022-12-23T07:51:04.971Z,98957.00
2022-12-23T07:53:32.117Z,98961.00
2022-12-23T07:55:59.115Z,98960.00
2022-12-23T07:58:26.175Z,98963.00
2022-12-23T08:01:01.678Z,98951.00
2022-12-23T08:03:29.030Z,98962.00
2022-12-23T08:06:03.089Z,98957.00
2022-12-23T08:08:30.987Z,98953.00
2022-12-23T08:11:05.189Z,98913.00
2022-12-23T08:13:35.637Z,98951.00
2022-12-23T08:28:04.182Z,98961.00
2022-12-23T08:30:35.931Z,98946.00
2022-12-23T08:33:03.190Z,98941.00
2022-12-23T08:35:31.187Z,98947.00
2022-12-23T08:37:58.554Z,98943.00
2022-12-23T08:40:27.461Z,98951.00
2022-12-23T08:42:54.931Z,98944.00
2022-12-23T08:45:22.794Z,98934.00
2022-12-23T08:47:50.847Z,98947.00
2022-12-23T08:50:18.616Z,98943.00
2022-12-23T08:52:46.498Z,98929.00
2022-12-23T08:55:14.760Z,98935.00
2022-12-23T08:57:43.292Z,98941.00
2022-12-23T09:00:13.500Z,98946.00
2022-12-23T09:02:41.137Z,98956.00
2022-12-23T09:05:09.475Z,98959.00
2022-12-23T09:07:37.256Z,98954.00
2022-12-23T09:10:07.649Z,98940.00
2022-12-23T09:12:35.552Z,98937.00
2022-12-23T09:15:03.643Z,98941.00
2022-12-23T09:17:31.209Z,98936.00
2022-12-23T09:19:59.298Z,98945.00
2022-12-23T09:22:28.043Z,98935.00
2022-12-23T09:25:01.264Z,98932.00
2022-12-23T09:27:33.746Z,98919.00
2022-12-23T09:30:01.383Z,98933.00
2022-12-23T09:32:28.963Z,98932.00
2022-12-23T09:34:58.320Z,98922.00
2022-12-23T09:37:27.295Z,98914.00
2022-12-23T09:39:56.318Z,98916.00
2022-12-23T09:43:07.762Z,98916.00
2022-12-23T09:45:59.212Z,98924.00
2022-12-23T09:48:34.910Z,98923.00
2022-12-23T09:51:05.265Z,98918.00
2022-12-23T09:54:06.249Z,98920.00
2022-12-23T09:57:01.138Z,98919.00
2022-12-23T09:59:34.456Z,98918.00
2022-12-23T10:02:22.206Z,98919.00
2022-12-23T10:05:25.745Z,98909.00
2022-12-23T10:08:07.669Z,98910.00
2022-12-23T10:10:44.875Z,98902.00
2022-12-23T10:13:42.441Z,98906.00
2022-12-23T10:16:19.742Z,98897.00
2022-12-23T10:19:42.334Z,98903.00
2022-12-23T10:22:16.767Z,98900.00
2022-12-23T10:24:48.916Z,98906.00
2022-12-23T10:27:22.585Z,98898.00
2022-12-23T10:29:51.079Z,98903.00
2022-12-23T10:32:45.638Z,98901.00
2022-12-23T10:35:43.225Z,98904.00
2022-12-23T10:38:24.110Z,98906.00
2022-12-23T10:41:16.157Z,98905.00
2022-12-23T10:45:06.971Z,98914.00
2022-12-23T10:47:59.654Z,98925.00
2022-12-23T10:50:56.092Z,98919.00
2022-12-23T10:53:59.936Z,98914.00
2022-12-23T10:56:30.898Z,98911.00
2022-12-23T10:59:01.619Z,98909.00
2022-12-23T11:01:32.156Z,98913.00
2022-12-23T11:04:21.287Z,98922.00
2022-12-23T11:07:18.364Z,98911.00
2022-12-23T11:10:01.932Z,98907.00
2022-12-23T11:12:49.885Z,98914.00
2022-12-23T11:15:40.285Z,98911.00
2022-12-23T11:18:20.712Z,98908.00
2022-12-23T11:21:08.166Z,98913.00
2022-12-23T11:23:37.289Z,98914.00
2022-12-23T11:26:15.498Z,98906.00
2022-12-23T11:28:56.636Z,98921.00
2022-12-23T11:31:38.072Z,98906.00
2022-12-23T11:34:16.535Z,98917.00
2022-12-23T11:36:50.105Z,98922.00
2022-12-23T11:39:35.177Z,98919.00
2022-12-23T11:42:13.140Z,98907.00
2022-12-23T11:44:49.502Z,98929.00
2022-12-23T11:47:24.457Z,98927.00
2022-12-23T11:50:00.015Z,98923.00
2022-12-23T11:52:34.035Z,98928.00
2022-12-23T11:55:06.440Z,98924.00
2022-12-23T11:57:49.207Z,98927.00
2022-12-23T12:00:26.846Z,98922.00
2022-12-23T12:03:02.230Z,98914.00
2022-12-23T12:05:51.683Z,98919.00
2022-12-23T12:08:29.766Z,98916.00
2022-12-23T12:11:11.602Z,98927.00
2022-12-23T12:13:48.216Z,98915.00
2022-12-23T12:29:48.815Z,98912.00
2022-12-23T12:32:46.741Z,98917.00
2022-12-23T12:35:22.862Z,98918.00
2022-12-23T12:38:04.457Z,98913.00
2022-12-23T12:40:57.176Z,98926.00
2022-12-23T12:43:29.709Z,98936.00
2022-12-23T12:46:18.766Z,98930.00
2022-12-23T12:49:15.942Z,98917.00
2022-12-23T12:52:16.231Z,98922.00
2022-12-23T12:55:13.635Z,98929.00
2022-12-23T12:57:42.408Z,98921.00
2022-12-23T13:00:22.730Z,98928.00
2022-12-23T13:03:50.060Z,98918.00
2022-12-23T13:06:51.539Z,98919.00
2022-12-23T13:09:49.032Z,98923.00
2022-12-23T13:12:49.421Z,98916.00
2022-12-23T13:15:32.007Z,98923.00
2022-12-23T13:18:20.660Z,98931.00
2022-12-23T13:21:27.357Z,98918.00
2022-12-23T13:24:18.752Z,98918.00
2022-12-23T13:27:11.120Z,98908.00
2022-12-23T13:30:03.193Z,98914.00
2022-12-23T13:32:53.592Z,98921.00
2022-12-23T13:35:45.116Z,98925.00
2022-12-23T13:38:25.022Z,98923.00
2022-12-23T13:41:24.166Z,98930.00
2022-12-23T13:44:05.447Z,98934.00
2022-12-23T13:47:06.711Z,98939.00
2022-12-23T13:49:45.934Z,98940.00
2022-12-23T13:52:41.607Z,98931.00
2022-12-23T13:55:55.732Z,98932.00
2022-12-23T13:58:28.156Z,98942.00
2022-12-23T14:01:22.023Z,98936.00
2022-12-23T14:03:50.852Z,98937.00
2022-12-23T14:06:40.881Z,98927.00
2022-12-23T14:09:12.615Z,98943.00
2022-12-23T14:11:39.831Z,98935.00
2022-12-23T14:14:22.683Z,98933.00
2022-12-23T14:17:28.454Z,98927.00
2022-12-23T14:20:34.144Z,98928.00
2022-12-23T14:23:29.357Z,98921.00
2022-12-23T14:26:10.551Z,98916.00
2022-12-23T14:29:06.552Z,98919.00
2022-12-23T14:31:42.810Z,98921.00
2022-12-23T14:34:19.012Z,98922.00
2022-12-23T14:37:24.220Z,98933.00
2022-12-23T14:39:52.550Z,98933.00
2022-12-23T14:42:43.365Z,98940.00
2022-12-23T14:45:35.658Z,98948.00
2022-12-23T14:48:33.728Z,98951.00
2022-12-23T14:51:09.862Z,98952.00
2022-12-23T14:54:01.276Z,98959.00
2022-12-23T14:57:19.177Z,98957.00
2022-12-23T15:00:04.404Z,98955.00
2022-12-23T15:02:37.295Z,98962.00
2022-12-23T15:05:05.140Z,98955.00
2022-12-23T15:07:46.224Z,98957.00
2022-12-23T15:10:26.098Z,98955.00
2022-12-23T15:12:59.348Z,98968.00
2022-12-23T15:15:30.122Z,98958.00
2022-12-23T15:18:13.131Z,98956.00
2022-12-23T15:20:40.247Z,98962.00
2022-12-23T15:23:17.720Z,98968.00
2022-12-23T15:25:48.668Z,98974.00
2022-12-23T15:28:23.607Z,98975.00
2022-12-23T15:30:56.825Z,98961.00
2022-12-23T15:36:30.763Z,98976.00
2022-12-23T15:39:00.698Z,98981.00
2022-12-23T15:41:29.202Z,98987.00
2022-12-23T15:44:01.734Z,98971.00
2022-12-23T15:46:31.685Z,98978.00
2022-12-23T15:48:59.027Z,98963.00
2022-12-23T15:52:07.918Z,98987.00
2022-12-23T15:55:05.141Z,98977.00
2022-12-23T15:57:45.012Z,98991.00
2022-12-23T16:00:36.101Z,98901.00
2022-12-23T16:03:08.945Z,98980.00
2022-12-23T16:05:42.084Z,98988.00
2022-12-23T16:08:11.164Z,98988.00
2022-12-23T16:10:38.833Z,98989.00
2022-12-23T16:13:17.934Z,98990.00
2022-12-23T16:15:46.011Z,98985.00
2022-12-23T16:18:26.173Z,98987.00
2022-12-23T16:21:01.983Z,98995.00
2022-12-23T16:23:32.839Z,98990.00
2022-12-23T16:26:02.157Z,98986.00
2022-12-23T16:28:49.606Z,98990.00
2022-12-23T16:31:19.621Z,98988.00
2022-12-23T16:33:55.551Z,98993.00
2022-12-23T16:36:25.287Z,98999.00
2022-12-23T16:39:09.045Z,98997.00
2022-12-23T16:41:36.815Z,98993.00
2022-12-23T16:44:04.482Z,98986.00
2022-12-23T16:46:42.199Z,98990.00
2022-12-23T16:49:18.256Z,98999.00
2022-12-23T16:51:46.391Z,99006.00
2022-12-23T16:54:20.378Z,99006.00
2022-12-23T16:56:47.686Z,99009.00
2022-12-23T16:59:18.877Z,99002.00
2022-12-23T17:01:48.977Z,99000.00
2022-12-23T17:04:16.449Z,98980.00
2022-12-23T17:06:43.740Z,99009.00
2022-12-23T17:09:11.722Z,99004.00
2022-12-23T17:11:47.597Z,99001.00
2022-12-23T17:14:21.109Z,98996.00
2022-12-23T17:16:49.075Z,98980.00
2022-12-23T17:19:20.651Z,98997.00
2022-12-23T17:22:01.075Z,98995.00
2022-12-23T17:24:28.357Z,98996.00
2022-12-23T17:26:58.702Z,98993.00
2022-12-23T17:29:26.943Z,98991.00
2022-12-23T17:31:54.317Z,98986.00
2022-12-23T17:34:25.064Z,98988.00
2022-12-23T17:36:53.295Z,99000.00
2022-12-23T17:39:23.351Z,98974.00
2022-12-23T17:41:52.015Z,98996.00
2022-12-23T17:44:22.581Z,98997.00
2022-12-23T17:46:50.976Z,98994.00
2022-12-23T17:49:20.046Z,99003.00
2022-12-23T17:51:47.725Z,99008.00
2022-12-23T17:54:25.394Z,99013.00
2022-12-23T17:56:54.049Z,99028.00
2022-12-23T17:59:23.382Z,99022.00
2022-12-23T18:01:51.372Z,99014.00
2022-12-23T18:04:19.688Z,99013.00
2022-12-23T18:06:48.337Z,99004.00
2022-12-23T18:09:17.108Z,99005.00
2022-12-23T18:11:48.186Z,99009.00
2022-12-23T18:14:25.184Z,99013.00
2022-12-23T18:16:52.980Z,99028.00
2022-12-23T18:19:22.196Z,99008.00
2022-12-23T18:21:50.852Z,99029.00
2022-12-23T18:24:18.745Z,99031.00
2022-12-23T18:26:47.713Z,99036.00
2022-12-23T18:29:14.740Z,99038.00
2022-12-23T18:31:52.058Z,99059.00
2022-12-23T18:34:20.735Z,99058.00
2022-12-23T18:36:52.129Z,99075.00
2022-12-23T18:39:21.453Z,99074.00
2022-12-23T18:41:48.709Z,99079.00
2022-12-23T18:44:20.337Z,99078.00
2022-12-23T18:46:49.020Z,99074.00
2022-12-23T18:49:18.161Z,99078.00
2022-12-23T18:51:45.701Z,99091.00
2022-12-23T18:54:16.995Z,99073.00
2022-12-23T18:56:45.031Z,99077.00
2022-12-23T18:59:29.198Z,99085.00
2022-12-23T19:01:57.817Z,99086.00
2022-12-23T19:04:26.517Z,99077.00
2022-12-23T19:06:55.974Z,99092.00
2022-12-23T19:09:25.266Z,99085.00
2022-12-23T19:11:58.831Z,99096.00
2022-12-23T19:14:25.789Z,99100.00
2022-12-23T19:16:54.329Z,99110.00
2022-12-23T19:19:22.163Z,99107.00
2022-12-23T19:21:52.781Z,99086.00
2022-12-23T19:24:20.463Z,99110.00
2022-12-23T19:26:47.604Z,99100.00
2022-12-23T19:29:15.587Z,99089.00
2022-12-23T19:31:42.539Z,99096.00
2022-12-23T19:34:14.679Z,99098.00
2022-12-23T19:36:44.344Z,99090.00
2022-12-23T19:39:16.692Z,99098.00
2022-12-23T19:41:44.261Z,99097.00
2022-12-23T19:44:11.231Z,99093.00
2022-12-23T19:46:38.210Z,99090.00
2022-12-23T19:49:05.174Z,99094.00
2022-12-23T19:51:32.217Z,99091.00
2022-12-23T19:53:59.183Z,99092.00
2022-12-23T19:56:27.359Z,99066.00
2022-12-23T19:58:54.278Z,99092.00
2022-12-23T20:01:25.125Z,99097.00
2022-12-23T20:03:55.656Z,99096.00
2022-12-23T20:06:28.052Z,99097.00
2022-12-23T20:09:00.372Z,99077.00
2022-12-23T20:11:30.600Z,99116.00
2022-12-23T20:13:58.769Z,99110.00
2022-12-23T20:16:27.321Z,99107.00
2022-12-23T20:18:54.786Z,99113.00
2022-12-23T20:21:21.919Z,99121.00
2022-12-23T20:23:49.553Z,99127.00
2022-12-23T20:26:18.821Z,99124.00
2022-12-23T20:28:46.578Z,99123.00
2022-12-23T20:31:16.681Z,99130.00
2022-12-23T20:33:43.789Z,99130.00
2022-12-23T20:36:17.695Z,99127.00
2022-12-23T20:38:46.970Z,99132.00
2022-12-23T20:41:17.832Z,99129.00
2022-12-23T20:43:56.956Z,99122.00
2022-12-23T20:46:32.335Z,99131.00
2022-12-23T20:48:59.318Z,99098.00
2022-12-23T20:51:26.532Z,99129.00
2022-12-23T20:53:59.570Z,99133.00
2022-12-23T20:56:29.348Z,99135.00
2022-12-23T20:58:59.463Z,99127.00
2022-12-23T21:01:38.328Z,99125.00
2022-12-23T21:04:09.557Z,99126.00
2022-12-23T21:06:37.061Z,99129.00
2022-12-23T21:09:06.847Z,99138.00
2022-12-23T21:11:37.740Z,99122.00
2022-12-23T21:14:07.372Z,99138.00
2022-12-23T21:16:37.344Z,99126.00
2022-12-23T21:19:07.205Z,99123.00
2022-12-23T21:21:34.836Z,99130.00
2022-12-23T21:24:04.793Z,99129.00
2022-12-23T21:26:33.560Z,99134.00
2022-12-23T21:29:04.177Z,99133.00
2022-12-23T21:31:35.499Z,99140.00
2022-12-23T21:34:03.513Z,99124.00
2022-12-23T21:36:34.645Z,99147.00
2022-12-23T21:39:02.082Z,99152.00
2022-12-23T21:41:34.251Z,99160.00
2022-12-23T21:44:01.642Z,99145.00
2022-12-23T21:46:29.615Z,99168.00
2022-12-23T21:48:58.927Z,99172.00
2022-12-23T21:51:39.727Z,99164.00
2022-12-23T21:54:08.565Z,99173.00
2022-12-23T21:56:36.105Z,99165.00
2022-12-23T21:59:12.989Z,99183.00
2022-12-23T22:01:41.312Z,99179.00
2022-12-23T22:04:08.398Z,99171.00
2022-12-23T22:06:39.331Z,99178.00
2022-12-23T22:09:08.097Z,99177.00
2022-12-23T22:11:37.866Z,99185.00
2022-12-23T22:14:08.186Z,99185.00
2022-12-23T22:16:36.635Z,99178.00
2022-12-23T22:19:06.508Z,99187.00
2022-12-23T22:21:36.010Z,99186.00
2022-12-23T22:24:03.717Z,99183.00
2022-12-23T22:26:33.055Z,99190.00
2022-12-23T22:29:04.709Z,99184.00
2022-12-23T22:31:49.484Z,99192.00
2022-12-23T22:34:22.568Z,99196.00
2022-12-23T22:36:50.524Z,99196.00
2022-12-23T22:39:21.664Z,99195.00
2022-12-23T22:41:51.639Z,99181.00
2022-12-23T22:44:19.843Z,99196.00
2022-12-23T22:46:47.086Z,99192.00
2022-12-23T22:49:15.712Z,99199.00
2022-12-23T22:51:44.152Z,99194.00
2022-12-23T22:54:11.236Z,99206.00
2022-12-23T22:56:38.226Z,99203.00
2022-12-23T22:59:05.521Z,99199.00
2022-12-23T23:01:35.665Z,99206.00
2022-12-23T23:04:04.671Z,99201.00
2022-12-23T23:06:37.756Z,99197.00
2022-12-23T23:09:08.261Z,99196.00
2022-12-23T23:11:35.981Z,99187.00
2022-12-23T23:14:03.741Z,99169.00
2022-12-23T23:16:32.143Z,99196.00
2022-12-23T23:19:03.093Z,99193.00
2022-12-23T23:21:30.389Z,99199.00
2022-12-23T23:23:57.381Z,99202.00
2022-12-23T23:26:27.691Z,99190.00
2022-12-23T23:28:56.266Z,99171.00
2022-12-23T23:34:11.944Z,99193.00
2022-12-23T23:36:39.356Z,99190.00
2022-12-23T23:39:06.663Z,99183.00
2022-12-23T23:41:34.236Z,99190.00
2022-12-23T23:44:01.189Z,99195.00
2022-12-23T23:46:28.397Z,99196.00
2022-12-23T23:48:58.073Z,99189.00
2022-12-23T23:51:25.195Z,99204.00
2022-12-23T23:53:52.500Z,99206.00
2022-12-23T23:56:25.063Z,99201.00
2022-12-23T23:58:53.011Z,99207.00
